createdAt,value
2019-05-12T00:00:21.153Z,102273.41
2019-05-12T00:02:49.589Z,102278.72
2019-05-12T00:05:18.673Z,102276.47
2019-05-12T00:07:48.679Z,102277.55
2019-05-12T00:10:18.938Z,102282.49
2019-05-12T00:12:48.504Z,102278.80
2019-05-12T00:15:19.174Z,102288.34
2019-05-12T00:17:48.571Z,102297.52
2019-05-12T00:20:18.419Z,102298.23
2019-05-12T00:22:49.135Z,102296.94
2019-05-12T00:25:18.550Z,102298.16
2019-05-12T00:27:48.620Z,102296.47
2019-05-12T00:30:38.850Z,102301.41
2019-05-12T00:33:09.417Z,102303.34
2019-05-12T00:35:38.299Z,102309.51
2019-05-12T00:38:09.123Z,102309.42
2019-05-12T00:40:39.106Z,102310.03
2019-05-12T00:43:08.647Z,102311.97
2019-05-12T00:45:38.783Z,102311.24
2019-05-12T00:48:09.254Z,102314.72
2019-05-12T00:50:38.283Z,102316.55
2019-05-12T00:53:09.144Z,102321.13
2019-05-12T00:55:38.028Z,102323.06
2019-05-12T00:58:08.331Z,102332.09
2019-05-12T01:00:40.618Z,102334.16
2019-05-12T01:03:08.756Z,102338.02
2019-05-12T01:05:38.293Z,102347.18
2019-05-12T01:08:09.110Z,102343.80
2019-05-12T01:10:38.905Z,102351.64
2019-05-12T01:13:08.774Z,102350.95
2019-05-12T01:15:38.172Z,102357.81
2019-05-12T01:18:09.478Z,102361.06
2019-05-12T01:20:38.926Z,102364.32
2019-05-12T01:23:08.466Z,102360.94
2019-05-12T01:25:39.442Z,102367.31
2019-05-12T01:28:08.503Z,102371.42
2019-05-12T01:30:38.984Z,102371.56
2019-05-12T01:33:08.548Z,102379.25
2019-05-12T01:35:38.819Z,102382.50
2019-05-12T01:38:08.136Z,102391.05
2019-05-12T01:40:39.518Z,102391.28
2019-05-12T01:43:08.604Z,102399.37
2019-05-12T01:45:38.081Z,102399.47
2019-05-12T01:48:08.641Z,102408.98
2019-05-12T01:50:38.615Z,102405.27
2019-05-12T01:53:08.642Z,102415.14
2019-05-12T01:55:38.900Z,102422.36
2019-05-12T01:58:08.381Z,102415.97
2019-05-12T02:00:38.894Z,102421.87
2019-05-12T02:03:09.191Z,102421.73
2019-05-12T02:05:39.743Z,102421.37
2019-05-12T02:08:10.123Z,102424.61
2019-05-12T02:10:39.017Z,102426.53
2019-05-12T02:13:08.026Z,102426.16
2019-05-12T02:15:38.325Z,102431.09
2019-05-12T02:18:09.100Z,102442.29
2019-05-12T02:20:38.320Z,102444.57
2019-05-12T02:23:08.931Z,102450.37
2019-05-12T02:25:38.183Z,102452.52
2019-05-12T02:28:09.234Z,102451.20
2019-05-12T02:30:41.674Z,102455.77
2019-05-12T02:33:07.851Z,102452.75
2019-05-12T02:35:36.336Z,102451.79
2019-05-12T02:38:05.279Z,102453.11
2019-05-12T02:40:35.006Z,102459.51
2019-05-12T02:43:05.314Z,102461.20
2019-05-12T02:45:35.569Z,102461.56
2019-05-12T02:48:05.237Z,102468.19
2019-05-12T02:50:54.507Z,102459.64
2019-05-12T02:53:24.871Z,102468.19
2019-05-12T02:55:55.586Z,102470.37
2019-05-12T02:58:26.926Z,102468.55
2019-05-12T03:00:57.583Z,102476.27
2019-05-12T03:03:29.431Z,102477.23
2019-05-12T03:06:00.375Z,102481.58
2019-05-12T03:08:34.559Z,102483.27
2019-05-12T03:11:08.150Z,102486.77
2019-05-12T03:13:36.614Z,102486.88
2019-05-12T03:16:05.261Z,102499.75
2019-05-12T03:18:34.811Z,102500.34
2019-05-12T03:21:05.573Z,102504.91
2019-05-12T03:23:35.234Z,102498.88
2019-05-12T03:26:05.196Z,102497.19
2019-05-12T03:28:35.657Z,102507.05
2019-05-12T03:31:07.851Z,102509.70
2019-05-12T03:33:42.050Z,102511.16
2019-05-12T03:36:09.118Z,102503.67
2019-05-12T03:38:36.061Z,102513.44
2019-05-12T03:41:05.518Z,102512.58
2019-05-12T03:43:35.231Z,102519.93
2019-05-12T03:46:05.246Z,102523.81
2019-05-12T03:48:34.914Z,102523.31
2019-05-12T03:51:05.671Z,102526.33
2019-05-12T03:53:35.481Z,102533.31
2019-05-12T03:56:04.510Z,102533.59
2019-05-12T03:58:34.546Z,102540.81
2019-05-12T04:01:04.841Z,102541.19
2019-05-12T04:03:34.504Z,102540.59
2019-05-12T04:06:04.788Z,102550.01
2019-05-12T04:08:34.716Z,102553.39
2019-05-12T04:11:05.354Z,102558.47
2019-05-12T04:13:34.304Z,102558.34
2019-05-12T04:16:04.871Z,102557.28
2019-05-12T04:18:34.930Z,102568.48
2019-05-12T04:21:05.446Z,102574.03
2019-05-12T04:23:34.803Z,102573.44
2019-05-12T04:26:10.996Z,102574.91
2019-05-12T04:28:35.141Z,102580.34
2019-05-12T04:31:05.522Z,102579.66
2019-05-12T04:33:34.754Z,102587.25
2019-05-12T04:36:05.534Z,102583.78
2019-05-12T04:38:35.465Z,102586.93
2019-05-12T04:41:05.764Z,102597.78
2019-05-12T04:43:35.412Z,102592.75
2019-05-12T04:46:05.110Z,102598.42
2019-05-12T04:48:35.786Z,102599.19
2019-05-12T04:51:05.117Z,102604.36
2019-05-12T04:53:35.378Z,102604.27
2019-05-12T04:56:14.744Z,102605.48
2019-05-12T04:58:35.239Z,102613.70
2019-05-12T05:01:06.320Z,102618.28
2019-05-12T05:03:36.811Z,102629.42
2019-05-12T05:06:05.266Z,102631.83
2019-05-12T05:08:34.884Z,102631.48
2019-05-12T05:11:04.927Z,102637.51
2019-05-12T05:13:36.752Z,102642.20
2019-05-12T05:16:05.427Z,102639.90
2019-05-12T05:18:34.559Z,102645.95
2019-05-12T05:21:04.710Z,102639.52
2019-05-12T05:23:53.760Z,102645.21
2019-05-12T05:26:27.841Z,102648.93
2019-05-12T05:28:54.236Z,102653.52
2019-05-12T05:31:24.350Z,102649.36
2019-05-12T05:33:53.673Z,102655.19
2019-05-12T05:36:22.267Z,102658.33
2019-05-12T05:38:55.766Z,102663.51
2019-05-12T05:41:20.888Z,102663.02
2019-05-12T05:43:56.389Z,102668.16
2019-05-12T05:46:19.479Z,102670.44
2019-05-12T05:48:48.120Z,102666.91
2019-05-12T05:51:16.583Z,102672.45
2019-05-12T05:53:49.900Z,102679.65
2019-05-12T05:56:18.170Z,102682.52
2019-05-12T05:58:50.268Z,102690.36
2019-05-12T06:01:15.649Z,102686.83
2019-05-12T06:03:44.330Z,102696.00
2019-05-12T06:06:15.239Z,102704.16
2019-05-12T06:08:45.368Z,102700.98
2019-05-12T06:11:23.035Z,102704.83
2019-05-12T06:13:44.451Z,102715.94
2019-05-12T06:16:20.181Z,102712.40
2019-05-12T06:18:43.988Z,102703.39
2019-05-12T06:21:13.751Z,102716.76
2019-05-12T06:23:43.468Z,102711.27
2019-05-12T06:26:14.019Z,102718.37
2019-05-12T06:28:43.937Z,102723.30
2019-05-12T06:31:13.814Z,102723.91
2019-05-12T06:33:44.682Z,102718.78
2019-05-12T06:36:21.752Z,102729.65
2019-05-12T06:38:43.520Z,102733.39
2019-05-12T06:41:20.268Z,102730.81
2019-05-12T06:43:45.243Z,102735.88
2019-05-12T06:46:20.519Z,102735.36
2019-05-12T06:48:45.351Z,102739.92
2019-05-12T06:51:16.998Z,102734.83
2019-05-12T06:53:44.326Z,102742.59
2019-05-12T06:56:17.566Z,102752.31
2019-05-12T06:58:44.262Z,102765.95
2019-05-12T07:01:19.237Z,102762.75
2019-05-12T07:03:44.064Z,102758.83
2019-05-12T07:06:17.950Z,102771.64
2019-05-12T07:08:43.873Z,102768.13
2019-05-12T07:11:14.271Z,102776.04
2019-05-12T07:13:43.656Z,102777.62
2019-05-12T07:16:21.482Z,102775.71
2019-05-12T07:18:47.122Z,102788.16
2019-05-12T07:21:20.149Z,102784.67
2019-05-12T07:23:46.031Z,102784.12
2019-05-12T07:26:19.318Z,102789.59
2019-05-12T07:28:44.785Z,102796.77
2019-05-12T07:31:14.231Z,102791.73
2019-05-12T07:33:45.985Z,102803.33
2019-05-12T07:36:13.952Z,102798.77
2019-05-12T07:38:43.906Z,102805.91
2019-05-12T07:41:14.720Z,102809.08
2019-05-12T07:43:45.099Z,102809.16
2019-05-12T07:46:14.902Z,102808.88
2019-05-12T07:48:46.518Z,102818.69
2019-05-12T07:51:14.396Z,102807.71
2019-05-12T07:53:46.888Z,102804.79
2019-05-12T07:56:14.428Z,102813.80
2019-05-12T07:58:47.462Z,102794.36
2019-05-12T08:01:14.578Z,102801.52
2019-05-12T08:03:43.797Z,102806.97
2019-05-12T08:06:14.112Z,102802.03
2019-05-12T08:08:51.099Z,102813.84
2019-05-12T08:11:14.953Z,102811.12
2019-05-12T08:13:43.816Z,102808.68
2019-05-12T08:16:14.293Z,102815.56
2019-05-12T08:18:44.425Z,102807.10
2019-05-12T08:21:13.987Z,102823.11
2019-05-12T08:23:44.413Z,102823.94
2019-05-12T08:26:18.394Z,102826.91
2019-05-12T08:28:44.244Z,102823.94
2019-05-12T08:31:14.074Z,102822.36
2019-05-12T08:33:43.678Z,102822.82
2019-05-12T08:36:16.078Z,102818.28
2019-05-12T08:38:44.446Z,102826.13
2019-05-12T08:41:14.537Z,102818.63
2019-05-12T08:43:47.117Z,102826.86
2019-05-12T08:46:15.686Z,102834.30
2019-05-12T08:48:44.733Z,102835.64
2019-05-12T08:51:14.551Z,102833.81
2019-05-12T08:53:43.922Z,102842.80
2019-05-12T08:56:18.973Z,102842.16
2019-05-12T08:58:48.235Z,102836.72
2019-05-12T09:01:13.801Z,102849.22
2019-05-12T09:03:44.301Z,102857.01
2019-05-12T09:06:15.525Z,102858.27
2019-05-12T09:08:49.325Z,102856.36
2019-05-12T09:11:15.671Z,102861.77
2019-05-12T09:13:44.109Z,102858.44
2019-05-12T09:16:13.798Z,102857.83
2019-05-12T09:18:43.506Z,102864.00
2019-05-12T09:21:14.071Z,102860.36
2019-05-12T09:23:44.982Z,102868.47
2019-05-12T09:26:13.551Z,102867.69
2019-05-12T09:28:49.883Z,102869.37
2019-05-12T09:31:14.138Z,102875.66
2019-05-12T09:33:44.728Z,102882.27
2019-05-12T09:36:19.751Z,102881.78
2019-05-12T09:38:44.062Z,102881.50
2019-05-12T09:41:14.010Z,102889.93
2019-05-12T09:43:46.213Z,102893.64
2019-05-12T09:46:14.411Z,102901.70
2019-05-12T09:48:48.471Z,102894.33
2019-05-12T09:51:16.932Z,102894.16
2019-05-12T09:53:50.805Z,102892.84
2019-05-12T09:56:14.126Z,102888.01
2019-05-12T09:58:43.626Z,102901.78
2019-05-12T10:01:13.996Z,102901.49
2019-05-12T10:03:43.735Z,102927.70
2019-05-12T10:06:17.946Z,102913.12
2019-05-12T10:08:43.489Z,102903.89
2019-05-12T10:11:16.577Z,102919.35
2019-05-12T10:13:44.791Z,102909.62
2019-05-12T10:16:13.452Z,102917.73
2019-05-12T10:18:50.770Z,102912.41
2019-05-12T10:21:15.496Z,102912.80
2019-05-12T10:23:43.623Z,102923.89
2019-05-12T10:26:14.778Z,102915.16
2019-05-12T10:28:51.553Z,102909.95
2019-05-12T10:31:13.866Z,102916.86
2019-05-12T10:33:43.329Z,102906.97
2019-05-12T10:36:11.887Z,102914.03
2019-05-12T10:38:40.324Z,102926.62
2019-05-12T10:41:08.972Z,102926.23
2019-05-12T10:43:37.481Z,102909.10
2019-05-12T10:46:05.910Z,102929.31
2019-05-12T10:48:34.470Z,102937.05
2019-05-12T10:51:03.012Z,102922.66
2019-05-12T10:53:31.465Z,102930.07
2019-05-12T10:56:00.205Z,102928.61
2019-05-12T10:58:28.625Z,102930.23
2019-05-12T11:00:58.875Z,102932.09
2019-05-12T11:03:27.541Z,102931.64
2019-05-12T11:06:02.393Z,102935.02
2019-05-12T11:08:26.126Z,102939.56
2019-05-12T11:10:59.313Z,102937.70
2019-05-12T11:13:24.981Z,102948.73
2019-05-12T11:15:54.583Z,102938.59
2019-05-12T11:18:26.057Z,102927.55
2019-05-12T11:20:54.376Z,102949.64
2019-05-12T11:23:24.450Z,102943.00
2019-05-12T11:25:53.641Z,102949.24
2019-05-12T11:28:24.250Z,102962.71
2019-05-12T11:30:52.270Z,102952.30
2019-05-12T11:33:20.740Z,102952.48
2019-05-12T11:35:53.908Z,102967.48
2019-05-12T11:38:24.252Z,102951.33
2019-05-12T11:40:53.879Z,102963.95
2019-05-12T11:43:24.628Z,102962.45
2019-05-12T11:45:53.620Z,102979.52
2019-05-12T11:48:23.792Z,102983.00
2019-05-12T11:50:54.505Z,102980.08
2019-05-12T11:53:30.250Z,102973.16
2019-05-12T11:55:54.853Z,102993.13
2019-05-12T11:58:23.801Z,102978.38
2019-05-12T12:00:58.572Z,102994.95
2019-05-12T12:03:26.589Z,102989.44
2019-05-12T12:05:56.919Z,102989.81
2019-05-12T12:08:33.726Z,102998.06
2019-05-12T12:11:01.211Z,103004.13
2019-05-12T12:13:33.665Z,103002.80
2019-05-12T12:16:07.031Z,102999.13
2019-05-12T12:18:34.542Z,103005.52
2019-05-12T12:21:07.682Z,102997.65
2019-05-12T12:23:36.044Z,103000.19
2019-05-12T12:26:06.149Z,102999.52
2019-05-12T12:28:37.205Z,103004.58
2019-05-12T12:31:07.826Z,103018.39
2019-05-12T12:33:40.707Z,103007.56
2019-05-12T12:36:09.057Z,103011.45
2019-05-12T18:33:52.136Z,103016.86
2019-05-12T18:36:14.613Z,103016.86
2019-05-12T18:38:44.732Z,103324.26
2019-05-12T18:41:13.989Z,103327.22
2019-05-12T18:43:43.538Z,103336.05
2019-05-12T18:46:14.026Z,103337.49
2019-05-12T18:48:42.497Z,103339.88
2019-05-12T18:51:12.213Z,103344.32
2019-05-12T18:53:43.657Z,103342.47
2019-05-12T18:56:19.934Z,103347.30
2019-05-12T18:58:43.885Z,103354.39
2019-05-12T19:01:13.942Z,103358.91
2019-05-12T19:03:47.882Z,103355.77
2019-05-12T19:06:14.131Z,103360.95
2019-05-12T19:08:42.687Z,103365.52
2019-05-12T19:11:20.052Z,103361.14
2019-05-12T19:13:45.323Z,103362.16
2019-05-12T19:16:11.700Z,103365.47
2019-05-12T19:18:40.175Z,103376.08
2019-05-12T19:21:10.303Z,103368.81
2019-05-12T19:23:38.759Z,103372.11
2019-05-12T19:26:07.270Z,103376.14
2019-05-12T19:28:35.686Z,103379.55
2019-05-12T19:31:06.080Z,103386.96
2019-05-12T19:33:34.658Z,103380.41
2019-05-12T19:36:05.393Z,103395.48
2019-05-12T19:38:34.557Z,103402.88
2019-05-12T19:41:04.716Z,103400.33
2019-05-12T19:43:33.981Z,103414.51
2019-05-12T19:46:03.732Z,103415.98
2019-05-12T19:48:36.758Z,103407.48
2019-05-12T19:51:17.958Z,103414.62
2019-05-12T19:53:33.322Z,103411.09
2019-05-12T19:56:03.787Z,103407.92
2019-05-12T19:58:33.997Z,103412.66
2019-05-12T20:01:03.611Z,103412.06
2019-05-12T20:03:33.496Z,103414.06
2019-05-12T20:06:02.184Z,103416.35
2019-05-12T20:08:30.805Z,103423.11
2019-05-12T20:10:59.276Z,103416.17
2019-05-12T20:13:29.653Z,103419.33
2019-05-12T20:15:57.912Z,103421.11
2019-05-12T20:18:26.351Z,103430.30
2019-05-12T20:20:55.025Z,103426.29
2019-05-12T20:23:24.506Z,103427.58
2019-05-12T20:25:53.608Z,103427.43
2019-05-12T20:28:24.213Z,103432.25
2019-05-12T20:31:00.976Z,103426.80
2019-05-12T20:33:24.030Z,103434.65
2019-05-12T20:35:54.679Z,103427.34
2019-05-12T20:38:27.154Z,103433.02
2019-05-12T20:40:54.030Z,103438.58
2019-05-12T20:43:23.997Z,103439.75
2019-05-12T20:45:52.804Z,103440.20
2019-05-12T20:48:26.462Z,103443.33
2019-05-12T20:50:51.671Z,103447.39
2019-05-12T20:53:24.866Z,103441.53
2019-05-12T20:55:50.269Z,103441.75
2019-05-12T20:58:18.691Z,103451.88
2019-05-12T21:00:50.145Z,103454.01
2019-05-12T21:03:17.896Z,103458.09
2019-05-12T21:05:50.676Z,103460.22
2019-05-12T21:08:16.738Z,103464.05
2019-05-12T21:10:45.386Z,103459.91
2019-05-12T21:13:14.681Z,103468.47
2019-05-12T21:15:45.783Z,103460.70
2019-05-12T21:18:14.875Z,103459.58
2019-05-12T21:20:46.444Z,103459.05
2019-05-12T21:23:13.687Z,103457.59
2019-05-12T21:25:43.840Z,103468.81
2019-05-12T21:28:14.666Z,103463.33
2019-05-12T21:30:48.116Z,103474.17
2019-05-12T21:33:14.775Z,103474.01
2019-05-12T21:35:45.840Z,103475.75
2019-05-12T21:38:13.535Z,103476.54
2019-05-12T21:40:44.154Z,103467.93
2019-05-12T21:43:13.531Z,103472.21
2019-05-12T21:45:42.171Z,103474.04
2019-05-12T21:48:15.230Z,103482.05
2019-05-12T21:50:40.754Z,103485.89
2019-05-12T21:53:10.122Z,103489.02
2019-05-12T21:55:39.565Z,103495.77
2019-05-12T21:58:12.175Z,103505.16
2019-05-12T22:00:45.065Z,103507.56
2019-05-12T22:03:15.587Z,103502.70
2019-05-12T22:05:51.676Z,103504.03
2019-05-12T22:08:20.713Z,103508.59
2019-05-12T22:10:45.862Z,103504.81
2019-05-12T22:13:17.962Z,103507.20
2019-05-12T22:15:45.022Z,103503.80
2019-05-12T22:18:13.451Z,103508.28
2019-05-12T22:20:44.477Z,103507.14
2019-05-12T22:23:14.951Z,103507.34
2019-05-12T22:25:43.597Z,103509.45
2019-05-12T22:28:13.494Z,103510.97
2019-05-12T22:30:43.797Z,103514.89
2019-05-12T22:33:13.850Z,103515.74
2019-05-12T22:35:44.355Z,103525.27
2019-05-12T22:38:16.616Z,103524.13
2019-05-12T22:40:43.146Z,103520.15
2019-05-12T22:43:11.582Z,103522.05
2019-05-12T22:45:49.148Z,103523.19
2019-05-12T22:48:12.093Z,103525.66
2019-05-12T22:50:40.552Z,103530.59
2019-05-12T22:53:09.555Z,103529.95
2019-05-12T22:55:38.011Z,103529.27
2019-05-12T22:58:10.838Z,103525.86
2019-05-12T23:00:37.140Z,103532.98
2019-05-12T23:03:10.163Z,103535.34
2019-05-12T23:05:36.252Z,103529.28
2019-05-12T23:08:08.260Z,103531.94
2019-05-12T23:10:35.040Z,103538.77
2019-05-12T23:13:05.114Z,103540.88
2019-05-12T23:15:38.865Z,103542.97
2019-05-12T23:18:04.421Z,103540.69
2019-05-12T23:20:35.533Z,103543.71
2019-05-12T23:23:04.021Z,103545.61
2019-05-12T23:25:33.771Z,103543.25
2019-05-12T23:28:06.776Z,103537.26
2019-05-12T23:30:32.660Z,103544.27
2019-05-12T23:33:03.540Z,103544.87
2019-05-12T23:35:37.295Z,103544.11
2019-05-12T23:38:04.188Z,103543.62
2019-05-12T23:40:34.382Z,103539.38
2019-05-12T23:43:04.131Z,103543.91
2019-05-12T23:45:33.981Z,103536.14
2019-05-12T23:48:03.785Z,103538.98
2019-05-12T23:50:32.742Z,103538.22
2019-05-12T23:53:03.505Z,103536.42
2019-05-12T23:55:34.712Z,103533.46
2019-05-12T23:58:04.131Z,103534.31
